sensor_id;sensor_type;location;lat;lon;timestamp;temperature;humidity
41924;DHT22;27613;48.116;11.656;2023-09-19T00:01:06;15.10;99.90
41924;DHT22;27613;48.116;11.656;2023-09-19T00:03:37;15.10;99.90
41924;DHT22;27613;48.116;11.656;2023-09-19T00:06:04;15.10;99.90
41924;DHT22;27613;48.116;11.656;2023-09-19T00:08:30;15.10;99.90
41924;DHT22;27613;48.116;11.656;2023-09-19T00:10:56;15.30;99.90
41924;DHT22;27613;48.116;11.656;2023-09-19T00:13:28;15.20;99.90
41924;DHT22;27613;48.116;11.656;2023-09-19T00:15:54;15.20;99.90
41924;DHT22;27613;48.116;11.656;2023-09-19T00:18:21;15.30;99.90
41924;DHT22;27613;48.116;11.656;2023-09-19T00:20:47;15.30;99.90
41924;DHT22;27613;48.116;11.656;2023-09-19T00:23:13;15.30;99.90
41924;DHT22;27613;48.116;11.656;2023-09-19T00:25:39;15.40;99.90
41924;DHT22;27613;48.116;11.656;2023-09-19T00:28:06;15.40;99.90
41924;DHT22;27613;48.116;11.656;2023-09-19T00:30:35;15.40;99.90
41924;DHT22;27613;48.116;11.656;2023-09-19T00:33:01;15.40;99.90
41924;DHT22;27613;48.116;11.656;2023-09-19T00:35:31;15.30;99.90
41924;DHT22;27613;48.116;11.656;2023-09-19T00:37:56;15.40;99.90
41924;DHT22;27613;48.116;11.656;2023-09-19T00:40:22;15.40;99.90
41924;DHT22;27613;48.116;11.656;2023-09-19T00:42:48;15.40;99.90
41924;DHT22;27613;48.116;11.656;2023-09-19T00:45:16;15.40;99.90
41924;DHT22;27613;48.116;11.656;2023-09-19T00:47:45;15.50;99.90
41924;DHT22;27613;48.116;11.656;2023-09-19T00:50:13;15.40;99.90
41924;DHT22;27613;48.116;11.656;2023-09-19T00:52:40;15.40;99.90
41924;DHT22;27613;48.116;11.656;2023-09-19T00:55:08;15.40;99.90
41924;DHT22;27613;48.116;11.656;2023-09-19T00:57:35;15.30;99.90
41924;DHT22;27613;48.116;11.656;2023-09-19T01:00:02;15.40;99.90
41924;DHT22;27613;48.116;11.656;2023-09-19T01:02:33;15.40;99.90
41924;DHT22;27613;48.116;11.656;2023-09-19T01:04:59;15.40;99.90
41924;DHT22;27613;48.116;11.656;2023-09-19T01:07:30;15.40;99.90
41924;DHT22;27613;48.116;11.656;2023-09-19T01:10:00;15.50;99.90
41924;DHT22;27613;48.116;11.656;2023-09-19T01:12:40;15.50;99.90
41924;DHT22;27613;48.116;11.656;2023-09-19T01:22:00;15.50;99.90
41924;DHT22;27613;48.116;11.656;2023-09-19T01:29:48;15.50;99.90
41924;DHT22;27613;48.116;11.656;2023-09-19T01:32:19;15.40;99.90
41924;DHT22;27613;48.116;11.656;2023-09-19T01:34:54;15.40;99.90
41924;DHT22;27613;48.116;11.656;2023-09-19T01:37:22;15.40;99.90
41924;DHT22;27613;48.116;11.656;2023-09-19T01:40:08;15.40;99.90
41924;DHT22;27613;48.116;11.656;2023-09-19T01:46:01;15.50;99.90
41924;DHT22;27613;48.116;11.656;2023-09-19T01:51:10;15.60;99.90
41924;DHT22;27613;48.116;11.656;2023-09-19T01:56:16;15.60;99.90
41924;DHT22;27613;48.116;11.656;2023-09-19T01:58:49;15.60;99.90
41924;DHT22;27613;48.116;11.656;2023-09-19T02:01:21;15.60;99.90
41924;DHT22;27613;48.116;11.656;2023-09-19T02:03:48;15.70;99.90
41924;DHT22;27613;48.116;11.656;2023-09-19T02:06:15;15.70;99.90
41924;DHT22;27613;48.116;11.656;2023-09-19T02:08:42;15.70;99.90
41924;DHT22;27613;48.116;11.656;2023-09-19T02:11:08;15.70;99.90
41924;DHT22;27613;48.116;11.656;2023-09-19T02:13:34;15.70;99.90
41924;DHT22;27613;48.116;11.656;2023-09-19T02:15:59;15.70;99.90
41924;DHT22;27613;48.116;11.656;2023-09-19T02:18:25;15.70;99.90
41924;DHT22;27613;48.116;11.656;2023-09-19T02:20:53;15.70;99.90
41924;DHT22;27613;48.116;11.656;2023-09-19T02:23:19;15.70;99.90
41924;DHT22;27613;48.116;11.656;2023-09-19T02:25:54;15.70;99.90
41924;DHT22;27613;48.116;11.656;2023-09-19T02:28:20;15.70;99.90
41924;DHT22;27613;48.116;11.656;2023-09-19T02:30:48;15.60;99.90
41924;DHT22;27613;48.116;11.656;2023-09-19T02:33:14;15.60;99.90
41924;DHT22;27613;48.116;11.656;2023-09-19T02:35:40;15.50;99.90
41924;DHT22;27613;48.116;11.656;2023-09-19T02:38:05;15.50;99.90
41924;DHT22;27613;48.116;11.656;2023-09-19T02:40:33;15.50;99.90
41924;DHT22;27613;48.116;11.656;2023-09-19T02:43:01;15.40;99.90
41924;DHT22;27613;48.116;11.656;2023-09-19T02:45:27;15.50;99.90
41924;DHT22;27613;48.116;11.656;2023-09-19T02:47:53;15.50;99.90
41924;DHT22;27613;48.116;11.656;2023-09-19T02:50:19;15.50;99.90
41924;DHT22;27613;48.116;11.656;2023-09-19T02:52:46;15.50;99.90
41924;DHT22;27613;48.116;11.656;2023-09-19T02:55:16;15.50;99.90
41924;DHT22;27613;48.116;11.656;2023-09-19T02:57:50;15.40;99.90
41924;DHT22;27613;48.116;11.656;2023-09-19T03:00:17;15.40;99.90
41924;DHT22;27613;48.116;11.656;2023-09-19T03:02:46;15.40;99.90
41924;DHT22;27613;48.116;11.656;2023-09-19T03:05:12;15.40;99.90
41924;DHT22;27613;48.116;11.656;2023-09-19T03:07:38;15.40;99.90
41924;DHT22;27613;48.116;11.656;2023-09-19T03:10:05;15.40;99.90
41924;DHT22;27613;48.116;11.656;2023-09-19T03:12:31;15.40;99.90
41924;DHT22;27613;48.116;11.656;2023-09-19T03:14:57;15.40;99.90
41924;DHT22;27613;48.116;11.656;2023-09-19T03:17:22;15.40;99.90
41924;DHT22;27613;48.116;11.656;2023-09-19T03:19:48;15.30;99.90
41924;DHT22;27613;48.116;11.656;2023-09-19T03:22:14;15.30;99.90
41924;DHT22;27613;48.116;11.656;2023-09-19T03:24:40;15.40;99.90
41924;DHT22;27613;48.116;11.656;2023-09-19T03:27:12;15.30;99.90
41924;DHT22;27613;48.116;11.656;2023-09-19T03:29:39;15.40;99.90
41924;DHT22;27613;48.116;11.656;2023-09-19T03:32:05;15.40;99.90
41924;DHT22;27613;48.116;11.656;2023-09-19T03:34:30;15.30;99.90
41924;DHT22;27613;48.116;11.656;2023-09-19T03:36:56;15.40;99.90
41924;DHT22;27613;48.116;11.656;2023-09-19T03:39:21;15.40;99.90
41924;DHT22;27613;48.116;11.656;2023-09-19T03:41:48;15.40;99.90
41924;DHT22;27613;48.116;11.656;2023-09-19T03:44:13;15.30;99.90
41924;DHT22;27613;48.116;11.656;2023-09-19T03:46:40;15.40;99.90
41924;DHT22;27613;48.116;11.656;2023-09-19T03:49:06;15.40;99.90
41924;DHT22;27613;48.116;11.656;2023-09-19T03:51:31;15.40;99.90
41924;DHT22;27613;48.116;11.656;2023-09-19T03:53:57;15.50;99.90
41924;DHT22;27613;48.116;11.656;2023-09-19T03:56:22;15.40;99.90
41924;DHT22;27613;48.116;11.656;2023-09-19T03:58:48;15.50;99.90
41924;DHT22;27613;48.116;11.656;2023-09-19T04:01:14;15.50;99.90
41924;DHT22;27613;48.116;11.656;2023-09-19T04:03:39;15.50;99.90
41924;DHT22;27613;48.116;11.656;2023-09-19T04:06:16;15.50;99.90
41924;DHT22;27613;48.116;11.656;2023-09-19T04:08:42;15.60;99.90
41924;DHT22;27613;48.116;11.656;2023-09-19T04:11:09;15.50;99.90
41924;DHT22;27613;48.116;11.656;2023-09-19T04:13:35;15.50;99.90
41924;DHT22;27613;48.116;11.656;2023-09-19T04:16:02;15.50;99.90
41924;DHT22;27613;48.116;11.656;2023-09-19T04:18:29;15.50;99.90
41924;DHT22;27613;48.116;11.656;2023-09-19T04:20:58;15.50;99.90
41924;DHT22;27613;48.116;11.656;2023-09-19T04:23:25;15.60;99.90
41924;DHT22;27613;48.116;11.656;2023-09-19T04:25:50;15.60;99.90
41924;DHT22;27613;48.116;11.656;2023-09-19T04:28:16;15.60;99.90
41924;DHT22;27613;48.116;11.656;2023-09-19T04:30:42;15.70;99.90
41924;DHT22;27613;48.116;11.656;2023-09-19T04:33:08;15.60;99.90
41924;DHT22;27613;48.116;11.656;2023-09-19T04:35:34;15.60;99.90
41924;DHT22;27613;48.116;11.656;2023-09-19T04:38:00;15.60;99.90
41924;DHT22;27613;48.116;11.656;2023-09-19T04:40:25;15.60;99.90
41924;DHT22;27613;48.116;11.656;2023-09-19T04:42:57;15.50;99.90
41924;DHT22;27613;48.116;11.656;2023-09-19T04:45:26;15.50;99.90
41924;DHT22;27613;48.116;11.656;2023-09-19T04:47:52;15.70;99.90
41924;DHT22;27613;48.116;11.656;2023-09-19T04:50:18;15.70;99.90
41924;DHT22;27613;48.116;11.656;2023-09-19T04:52:44;15.70;99.90
41924;DHT22;27613;48.116;11.656;2023-09-19T04:55:14;15.70;99.90
41924;DHT22;27613;48.116;11.656;2023-09-19T04:57:52;15.60;99.90
41924;DHT22;27613;48.116;11.656;2023-09-19T05:00:22;15.70;99.90
41924;DHT22;27613;48.116;11.656;2023-09-19T05:02:55;15.70;99.90
41924;DHT22;27613;48.116;11.656;2023-09-19T05:05:24;15.80;99.90
41924;DHT22;27613;48.116;11.656;2023-09-19T05:07:50;15.90;99.90
41924;DHT22;27613;48.116;11.656;2023-09-19T05:10:17;15.80;99.90
41924;DHT22;27613;48.116;11.656;2023-09-19T05:12:44;15.80;99.90
41924;DHT22;27613;48.116;11.656;2023-09-19T05:15:12;15.80;99.90
41924;DHT22;27613;48.116;11.656;2023-09-19T05:17:38;15.90;99.90
41924;DHT22;27613;48.116;11.656;2023-09-19T05:20:05;15.90;99.90
41924;DHT22;27613;48.116;11.656;2023-09-19T05:22:44;16.00;99.90
41924;DHT22;27613;48.116;11.656;2023-09-19T05:25:11;16.00;99.90
41924;DHT22;27613;48.116;11.656;2023-09-19T05:27:42;16.10;99.90
41924;DHT22;27613;48.116;11.656;2023-09-19T05:30:08;16.10;99.90
41924;DHT22;27613;48.116;11.656;2023-09-19T05:32:33;16.10;99.90
41924;DHT22;27613;48.116;11.656;2023-09-19T05:34:59;16.20;99.90
41924;DHT22;27613;48.116;11.656;2023-09-19T05:37:25;16.20;99.90
41924;DHT22;27613;48.116;11.656;2023-09-19T05:39:51;16.30;99.90
41924;DHT22;27613;48.116;11.656;2023-09-19T05:42:18;16.20;99.90
41924;DHT22;27613;48.116;11.656;2023-09-19T05:44:44;16.20;99.90
41924;DHT22;27613;48.116;11.656;2023-09-19T05:47:09;16.20;99.90
41924;DHT22;27613;48.116;11.656;2023-09-19T05:49:35;16.20;99.90
41924;DHT22;27613;48.116;11.656;2023-09-19T05:52:05;16.20;99.90
41924;DHT22;27613;48.116;11.656;2023-09-19T05:54:30;16.10;99.90
41924;DHT22;27613;48.116;11.656;2023-09-19T05:56:56;16.10;99.90
41924;DHT22;27613;48.116;11.656;2023-09-19T05:59:23;16.10;99.90
41924;DHT22;27613;48.116;11.656;2023-09-19T06:01:48;16.00;99.90
41924;DHT22;27613;48.116;11.656;2023-09-19T06:04:14;16.00;99.90
41924;DHT22;27613;48.116;11.656;2023-09-19T06:06:39;16.10;99.90
41924;DHT22;27613;48.116;11.656;2023-09-19T06:09:06;16.20;99.90
41924;DHT22;27613;48.116;11.656;2023-09-19T06:11:34;16.30;99.90
41924;DHT22;27613;48.116;11.656;2023-09-19T06:14:01;16.50;99.90
41924;DHT22;27613;48.116;11.656;2023-09-19T06:16:28;16.60;99.90
41924;DHT22;27613;48.116;11.656;2023-09-19T06:18:54;16.70;99.90
41924;DHT22;27613;48.116;11.656;2023-09-19T06:21:22;16.80;99.90
41924;DHT22;27613;48.116;11.656;2023-09-19T06:23:47;16.80;99.90
41924;DHT22;27613;48.116;11.656;2023-09-19T06:26:13;16.80;99.90
41924;DHT22;27613;48.116;11.656;2023-09-19T06:28:38;16.90;99.90
41924;DHT22;27613;48.116;11.656;2023-09-19T06:31:04;17.10;99.90
41924;DHT22;27613;48.116;11.656;2023-09-19T06:33:35;17.20;99.90
41924;DHT22;27613;48.116;11.656;2023-09-19T06:36:04;17.40;99.90
41924;DHT22;27613;48.116;11.656;2023-09-19T06:38:30;17.50;99.90
41924;DHT22;27613;48.116;11.656;2023-09-19T06:40:56;17.60;99.90
41924;DHT22;27613;48.116;11.656;2023-09-19T06:43:23;17.70;99.90
41924;DHT22;27613;48.116;11.656;2023-09-19T06:45:49;17.70;99.90
41924;DHT22;27613;48.116;11.656;2023-09-19T06:48:17;17.60;99.90
41924;DHT22;27613;48.116;11.656;2023-09-19T06:50:43;17.60;99.90
41924;DHT22;27613;48.116;11.656;2023-09-19T06:53:10;17.60;99.90
41924;DHT22;27613;48.116;11.656;2023-09-19T06:55:35;17.60;99.90
41924;DHT22;27613;48.116;11.656;2023-09-19T06:58:02;17.60;99.90
41924;DHT22;27613;48.116;11.656;2023-09-19T07:00:27;17.40;99.90
41924;DHT22;27613;48.116;11.656;2023-09-19T07:03:07;17.30;99.90
41924;DHT22;27613;48.116;11.656;2023-09-19T07:05:40;17.30;99.90
41924;DHT22;27613;48.116;11.656;2023-09-19T07:08:09;17.40;99.90
41924;DHT22;27613;48.116;11.656;2023-09-19T07:10:38;17.60;99.90
41924;DHT22;27613;48.116;11.656;2023-09-19T07:13:06;17.90;99.90
41924;DHT22;27613;48.116;11.656;2023-09-19T07:15:34;18.00;99.90
41924;DHT22;27613;48.116;11.656;2023-09-19T07:18:02;18.00;99.90
41924;DHT22;27613;48.116;11.656;2023-09-19T07:20:28;17.90;99.90
41924;DHT22;27613;48.116;11.656;2023-09-19T07:22:57;17.90;99.90
41924;DHT22;27613;48.116;11.656;2023-09-19T07:25:25;17.80;99.90
41924;DHT22;27613;48.116;11.656;2023-09-19T07:27:51;17.90;99.90
41924;DHT22;27613;48.116;11.656;2023-09-19T07:30:17;18.00;99.90
41924;DHT22;27613;48.116;11.656;2023-09-19T07:32:42;18.10;99.90
41924;DHT22;27613;48.116;11.656;2023-09-19T07:35:08;17.90;99.90
41924;DHT22;27613;48.116;11.656;2023-09-19T07:37:34;17.80;99.90
41924;DHT22;27613;48.116;11.656;2023-09-19T07:40:04;18.00;99.90
41924;DHT22;27613;48.116;11.656;2023-09-19T07:42:36;18.00;99.90
41924;DHT22;27613;48.116;11.656;2023-09-19T07:45:04;18.40;99.90
41924;DHT22;27613;48.116;11.656;2023-09-19T07:47:30;18.70;99.90
41924;DHT22;27613;48.116;11.656;2023-09-19T07:49:58;18.70;99.30
41924;DHT22;27613;48.116;11.656;2023-09-19T07:52:24;19.00;98.90
41924;DHT22;27613;48.116;11.656;2023-09-19T07:54:50;19.00;98.30
41924;DHT22;27613;48.116;11.656;2023-09-19T07:57:15;19.00;98.30
41924;DHT22;27613;48.116;11.656;2023-09-19T07:59:41;19.20;98.20
41924;DHT22;27613;48.116;11.656;2023-09-19T08:02:08;19.20;98.10
41924;DHT22;27613;48.116;11.656;2023-09-19T08:04:44;19.20;97.10
41924;DHT22;27613;48.116;11.656;2023-09-19T08:07:12;19.40;97.30
41924;DHT22;27613;48.116;11.656;2023-09-19T08:09:38;19.50;96.70
41924;DHT22;27613;48.116;11.656;2023-09-19T08:12:06;19.90;95.50
41924;DHT22;27613;48.116;11.656;2023-09-19T08:14:33;20.00;96.00
41924;DHT22;27613;48.116;11.656;2023-09-19T08:16:59;19.80;95.30
41924;DHT22;27613;48.116;11.656;2023-09-19T08:19:26;19.90;95.40
41924;DHT22;27613;48.116;11.656;2023-09-19T08:21:56;19.50;95.60
41924;DHT22;27613;48.116;11.656;2023-09-19T08:24:24;19.00;96.80
41924;DHT22;27613;48.116;11.656;2023-09-19T08:26:52;19.40;95.80
41924;DHT22;27613;48.116;11.656;2023-09-19T08:29:20;20.20;94.50
41924;DHT22;27613;48.116;11.656;2023-09-19T08:31:45;20.70;93.10
41924;DHT22;27613;48.116;11.656;2023-09-19T08:34:13;20.80;93.10
41924;DHT22;27613;48.116;11.656;2023-09-19T08:36:38;20.30;93.00
41924;DHT22;27613;48.116;11.656;2023-09-19T08:39:04;20.30;93.10
41924;DHT22;27613;48.116;11.656;2023-09-19T08:41:30;20.40;93.00
41924;DHT22;27613;48.116;11.656;2023-09-19T08:43:59;21.80;91.20
41924;DHT22;27613;48.116;11.656;2023-09-19T08:46:29;23.30;84.20
41924;DHT22;27613;48.116;11.656;2023-09-19T08:49:08;23.30;83.20
41924;DHT22;27613;48.116;11.656;2023-09-19T08:51:40;24.20;78.00
41924;DHT22;27613;48.116;11.656;2023-09-19T08:54:07;24.20;78.10
41924;DHT22;27613;48.116;11.656;2023-09-19T08:56:33;24.90;74.90
41924;DHT22;27613;48.116;11.656;2023-09-19T08:59:06;24.20;76.10
41924;DHT22;27613;48.116;11.656;2023-09-19T09:01:36;24.20;76.80
41924;DHT22;27613;48.116;11.656;2023-09-19T09:04:08;23.60;77.70
41924;DHT22;27613;48.116;11.656;2023-09-19T09:06:38;24.00;76.40
41924;DHT22;27613;48.116;11.656;2023-09-19T09:09:05;23.70;76.80
41924;DHT22;27613;48.116;11.656;2023-09-19T09:11:33;22.70;78.50
41924;DHT22;27613;48.116;11.656;2023-09-19T09:13:59;22.30;80.80
41924;DHT22;27613;48.116;11.656;2023-09-19T09:16:24;21.80;82.00
41924;DHT22;27613;48.116;11.656;2023-09-19T09:18:51;22.30;81.50
41924;DHT22;27613;48.116;11.656;2023-09-19T09:21:20;21.50;83.40
41924;DHT22;27613;48.116;11.656;2023-09-19T09:23:47;20.90;84.70
41924;DHT22;27613;48.116;11.656;2023-09-19T09:26:13;20.60;87.20
41924;DHT22;27613;48.116;11.656;2023-09-19T09:28:45;20.30;87.60
41924;DHT22;27613;48.116;11.656;2023-09-19T09:31:25;20.10;88.50
41924;DHT22;27613;48.116;11.656;2023-09-19T09:33:55;19.90;88.60
41924;DHT22;27613;48.116;11.656;2023-09-19T09:36:38;19.70;89.70
41924;DHT22;27613;48.116;11.656;2023-09-19T09:39:04;21.00;84.50
41924;DHT22;27613;48.116;11.656;2023-09-19T09:41:50;23.30;77.80
41924;DHT22;27613;48.116;11.656;2023-09-19T09:44:17;25.10;71.80
41924;DHT22;27613;48.116;11.656;2023-09-19T09:46:46;25.90;69.70
41924;DHT22;27613;48.116;11.656;2023-09-19T09:49:25;26.80;66.90
41924;DHT22;27613;48.116;11.656;2023-09-19T09:52:02;25.70;67.80
41924;DHT22;27613;48.116;11.656;2023-09-19T09:55:01;23.70;70.90
41924;DHT22;27613;48.116;11.656;2023-09-19T09:57:30;23.30;73.70
41924;DHT22;27613;48.116;11.656;2023-09-19T09:59:57;25.00;69.20
41924;DHT22;27613;48.116;11.656;2023-09-19T10:02:35;23.40;72.20
41924;DHT22;27613;48.116;11.656;2023-09-19T10:05:15;22.20;75.60
41924;DHT22;27613;48.116;11.656;2023-09-19T10:07:54;22.90;75.00
41924;DHT22;27613;48.116;11.656;2023-09-19T10:10:31;25.80;69.10
41924;DHT22;27613;48.116;11.656;2023-09-19T10:13:10;26.00;64.50
41924;DHT22;27613;48.116;11.656;2023-09-19T10:15:43;26.20;65.20
41924;DHT22;27613;48.116;11.656;2023-09-19T10:18:26;26.40;65.30
41924;DHT22;27613;48.116;11.656;2023-09-19T10:20:54;27.40;63.10
41924;DHT22;27613;48.116;11.656;2023-09-19T10:23:21;28.30;62.10
41924;DHT22;27613;48.116;11.656;2023-09-19T10:25:51;26.40;64.50
41924;DHT22;27613;48.116;11.656;2023-09-19T10:28:19;26.90;64.30
41924;DHT22;27613;48.116;11.656;2023-09-19T10:30:49;26.80;62.80
41924;DHT22;27613;48.116;11.656;2023-09-19T10:33:23;27.90;61.10
41924;DHT22;27613;48.116;11.656;2023-09-19T10:35:53;27.20;62.80
41924;DHT22;27613;48.116;11.656;2023-09-19T10:38:27;26.80;62.20
41924;DHT22;27613;48.116;11.656;2023-09-19T10:40:55;26.60;62.90
41924;DHT22;27613;48.116;11.656;2023-09-19T10:43:32;25.20;66.50
41924;DHT22;27613;48.116;11.656;2023-09-19T10:46:03;25.40;63.70
41924;DHT22;27613;48.116;11.656;2023-09-19T10:48:31;27.10;61.80
41924;DHT22;27613;48.116;11.656;2023-09-19T10:51:04;27.50;62.10
41924;DHT22;27613;48.116;11.656;2023-09-19T10:53:58;27.30;63.10
41924;DHT22;27613;48.116;11.656;2023-09-19T10:56:48;27.80;61.50
41924;DHT22;27613;48.116;11.656;2023-09-19T10:59:19;28.00;60.20
41924;DHT22;27613;48.116;11.656;2023-09-19T11:01:53;27.90;59.40
41924;DHT22;27613;48.116;11.656;2023-09-19T11:04:33;27.90;58.90
41924;DHT22;27613;48.116;11.656;2023-09-19T11:15:02;30.50;57.10
41924;DHT22;27613;48.116;11.656;2023-09-19T11:17:43;30.40;55.50
41924;DHT22;27613;48.116;11.656;2023-09-19T11:20:19;30.50;55.70
41924;DHT22;27613;48.116;11.656;2023-09-19T11:30:32;25.50;64.60
41924;DHT22;27613;48.116;11.656;2023-09-19T11:36:12;28.90;58.80
41924;DHT22;27613;48.116;11.656;2023-09-19T11:46:18;31.10;53.20
41924;DHT22;27613;48.116;11.656;2023-09-19T11:48:51;28.60;55.80
41924;DHT22;27613;48.116;11.656;2023-09-19T11:51:22;26.80;57.50
41924;DHT22;27613;48.116;11.656;2023-09-19T11:53:53;27.10;59.10
41924;DHT22;27613;48.116;11.656;2023-09-19T11:56:22;27.40;56.50
41924;DHT22;27613;48.116;11.656;2023-09-19T11:58:50;25.90;59.00
41924;DHT22;27613;48.116;11.656;2023-09-19T12:01:39;24.90;59.90
41924;DHT22;27613;48.116;11.656;2023-09-19T12:04:11;24.60;61.20
41924;DHT22;27613;48.116;11.656;2023-09-19T12:06:37;24.50;60.90
41924;DHT22;27613;48.116;11.656;2023-09-19T12:09:13;24.40;61.80
41924;DHT22;27613;48.116;11.656;2023-09-19T12:11:43;26.60;59.00
41924;DHT22;27613;48.116;11.656;2023-09-19T12:14:11;28.00;57.20
41924;DHT22;27613;48.116;11.656;2023-09-19T12:16:54;28.10;55.50
41924;DHT22;27613;48.116;11.656;2023-09-19T12:19:21;26.70;56.90
41924;DHT22;27613;48.116;11.656;2023-09-19T12:22:01;27.00;57.00
41924;DHT22;27613;48.116;11.656;2023-09-19T12:24:31;27.50;56.80
41924;DHT22;27613;48.116;11.656;2023-09-19T12:27:01;27.40;57.00
41924;DHT22;27613;48.116;11.656;2023-09-19T12:29:29;26.50;58.50
41924;DHT22;27613;48.116;11.656;2023-09-19T12:31:57;25.90;59.60
41924;DHT22;27613;48.116;11.656;2023-09-19T12:37:04;25.10;61.80
41924;DHT22;27613;48.116;11.656;2023-09-19T12:39:36;27.10;58.50
41924;DHT22;27613;48.116;11.656;2023-09-19T12:42:02;27.50;56.20
41924;DHT22;27613;48.116;11.656;2023-09-19T12:44:29;28.70;55.30
41924;DHT22;27613;48.116;11.656;2023-09-19T12:46:55;28.50;54.70
41924;DHT22;27613;48.116;11.656;2023-09-19T12:49:24;28.20;54.70
41924;DHT22;27613;48.116;11.656;2023-09-19T12:51:55;28.40;55.10
41924;DHT22;27613;48.116;11.656;2023-09-19T12:54:20;28.80;54.90
41924;DHT22;27613;48.116;11.656;2023-09-19T12:56:47;30.00;54.50
41924;DHT22;27613;48.116;11.656;2023-09-19T12:59:14;29.00;54.80
41924;DHT22;27613;48.116;11.656;2023-09-19T13:01:42;27.80;56.50
41924;DHT22;27613;48.116;11.656;2023-09-19T13:04:13;27.80;57.40
41924;DHT22;27613;48.116;11.656;2023-09-19T13:06:41;29.40;55.50
41924;DHT22;27613;48.116;11.656;2023-09-19T13:09:10;28.60;55.60
41924;DHT22;27613;48.116;11.656;2023-09-19T13:11:37;27.80;57.20
41924;DHT22;27613;48.116;11.656;2023-09-19T13:17:02;27.30;57.90
41924;DHT22;27613;48.116;11.656;2023-09-19T13:19:50;28.30;55.60
41924;DHT22;27613;48.116;11.656;2023-09-19T13:22:44;27.90;56.40
41924;DHT22;27613;48.116;11.656;2023-09-19T13:25:15;28.90;54.60
41924;DHT22;27613;48.116;11.656;2023-09-19T13:30:13;28.10;55.80
41924;DHT22;27613;48.116;11.656;2023-09-19T13:32:39;28.50;56.10
41924;DHT22;27613;48.116;11.656;2023-09-19T13:35:06;28.20;56.10
41924;DHT22;27613;48.116;11.656;2023-09-19T13:37:34;29.00;55.00
41924;DHT22;27613;48.116;11.656;2023-09-19T13:40:09;28.40;56.20
41924;DHT22;27613;48.116;11.656;2023-09-19T13:42:36;29.20;55.60
41924;DHT22;27613;48.116;11.656;2023-09-19T13:45:02;29.20;54.70
41924;DHT22;27613;48.116;11.656;2023-09-19T13:47:30;28.80;54.90
41924;DHT22;27613;48.116;11.656;2023-09-19T13:49:55;29.30;54.20
41924;DHT22;27613;48.116;11.656;2023-09-19T13:52:21;28.60;54.60
41924;DHT22;27613;48.116;11.656;2023-09-19T13:54:49;28.70;55.50
41924;DHT22;27613;48.116;11.656;2023-09-19T13:57:16;29.40;54.10
41924;DHT22;27613;48.116;11.656;2023-09-19T13:59:42;30.00;54.00
41924;DHT22;27613;48.116;11.656;2023-09-19T14:02:07;30.40;54.30
41924;DHT22;27613;48.116;11.656;2023-09-19T14:04:33;30.20;52.60
41924;DHT22;27613;48.116;11.656;2023-09-19T14:07:00;29.30;53.20
41924;DHT22;27613;48.116;11.656;2023-09-19T14:09:26;29.50;51.80
41924;DHT22;27613;48.116;11.656;2023-09-19T14:11:52;30.30;51.90
41924;DHT22;27613;48.116;11.656;2023-09-19T14:14:19;30.70;50.30
41924;DHT22;27613;48.116;11.656;2023-09-19T14:16:46;28.90;52.20
41924;DHT22;27613;48.116;11.656;2023-09-19T14:19:11;28.00;54.10
41924;DHT22;27613;48.116;11.656;2023-09-19T14:21:37;27.00;56.10
41924;DHT22;27613;48.116;11.656;2023-09-19T14:24:04;26.60;55.70
41924;DHT22;27613;48.116;11.656;2023-09-19T14:26:37;26.00;57.50
41924;DHT22;27613;48.116;11.656;2023-09-19T14:29:03;26.10;58.70
41924;DHT22;27613;48.116;11.656;2023-09-19T14:31:28;27.70;56.60
41924;DHT22;27613;48.116;11.656;2023-09-19T14:33:55;28.50;55.30
41924;DHT22;27613;48.116;11.656;2023-09-19T14:36:22;28.90;53.90
41924;DHT22;27613;48.116;11.656;2023-09-19T14:38:47;29.30;53.80
41924;DHT22;27613;48.116;11.656;2023-09-19T14:41:19;28.90;53.90
41924;DHT22;27613;48.116;11.656;2023-09-19T14:43:44;27.10;57.10
41924;DHT22;27613;48.116;11.656;2023-09-19T14:46:10;26.90;57.60
41924;DHT22;27613;48.116;11.656;2023-09-19T14:48:39;27.50;58.00
41924;DHT22;27613;48.116;11.656;2023-09-19T14:51:06;27.90;55.80
41924;DHT22;27613;48.116;11.656;2023-09-19T14:53:34;27.30;57.40
41924;DHT22;27613;48.116;11.656;2023-09-19T14:56:03;28.10;55.70
41924;DHT22;27613;48.116;11.656;2023-09-19T14:58:29;27.90;55.50
41924;DHT22;27613;48.116;11.656;2023-09-19T15:01:05;28.50;54.90
41924;DHT22;27613;48.116;11.656;2023-09-19T15:03:34;28.90;55.20
41924;DHT22;27613;48.116;11.656;2023-09-19T15:06:08;29.90;53.30
41924;DHT22;27613;48.116;11.656;2023-09-19T15:08:36;28.30;54.20
41924;DHT22;27613;48.116;11.656;2023-09-19T15:11:04;27.50;56.40
41924;DHT22;27613;48.116;11.656;2023-09-19T15:13:31;27.20;57.00
41924;DHT22;27613;48.116;11.656;2023-09-19T15:16:00;27.50;56.20
41924;DHT22;27613;48.116;11.656;2023-09-19T15:18:27;28.50;54.90
41924;DHT22;27613;48.116;11.656;2023-09-19T15:20:54;28.30;54.00
41924;DHT22;27613;48.116;11.656;2023-09-19T15:23:20;27.70;55.00
41924;DHT22;27613;48.116;11.656;2023-09-19T15:25:49;27.70;54.50
41924;DHT22;27613;48.116;11.656;2023-09-19T15:28:15;27.40;55.30
41924;DHT22;27613;48.116;11.656;2023-09-19T15:30:40;28.80;53.70
41924;DHT22;27613;48.116;11.656;2023-09-19T15:33:06;28.50;53.40
41924;DHT22;27613;48.116;11.656;2023-09-19T15:35:31;28.20;53.70
41924;DHT22;27613;48.116;11.656;2023-09-19T15:37:57;28.10;54.40
41924;DHT22;27613;48.116;11.656;2023-09-19T15:40:26;27.70;55.00
41924;DHT22;27613;48.116;11.656;2023-09-19T15:42:54;27.40;56.40
41924;DHT22;27613;48.116;11.656;2023-09-19T15:45:19;28.10;55.70
41924;DHT22;27613;48.116;11.656;2023-09-19T15:47:45;26.00;57.50
41924;DHT22;27613;48.116;11.656;2023-09-19T15:50:11;27.00;57.30
41924;DHT22;27613;48.116;11.656;2023-09-19T15:52:39;27.20;57.20
41924;DHT22;27613;48.116;11.656;2023-09-19T15:55:06;26.00;59.20
41924;DHT22;27613;48.116;11.656;2023-09-19T15:57:37;27.00;57.90
41924;DHT22;27613;48.116;11.656;2023-09-19T16:00:05;27.10;56.90
41924;DHT22;27613;48.116;11.656;2023-09-19T16:02:36;26.90;57.10
41924;DHT22;27613;48.116;11.656;2023-09-19T16:05:01;26.70;57.70
41924;DHT22;27613;48.116;11.656;2023-09-19T16:07:32;27.00;57.70
41924;DHT22;27613;48.116;11.656;2023-09-19T16:09:59;26.50;58.30
41924;DHT22;27613;48.116;11.656;2023-09-19T16:12:25;27.10;58.10
41924;DHT22;27613;48.116;11.656;2023-09-19T16:14:51;26.00;59.00
41924;DHT22;27613;48.116;11.656;2023-09-19T16:17:17;25.90;59.10
41924;DHT22;27613;48.116;11.656;2023-09-19T16:19:43;25.20;59.20